BIRK/RKV METAR and TAF weather

Enter ICAO airport designator
Station Type Date Time Source
BIRK METAR 2018/01/23 01:00 UTC NOAA

BIRK 230100Z 10016G27KT 060V120 9999 -RASN BKN023 OVC036 03/M01 Q0981


Station Type Date Time Source
BIRK Decoded METAR 2018/01/23 01:00 UTC NOAA

Reykjavik, Iceland (BIRK) 64-08N 021-54W 61M
Jan 22, 2018 - 08:00 PM EST / 2018.01.23 0100 UTC
Wind: from the E (100 degrees) at 18 MPH (16 KT) gusting to 31 MPH (27 KT) (direction variable):0
Visibility: greater than 7 mile(s):0
Sky conditions: overcast
Weather: light rain, snow
Temperature: 37 F (3 C)
Dew Point: 30 F (-1 C)
Relative Humidity: 74%
Pressure (altimeter): 28.97 in. Hg (0981 hPa)
ob: BIRK 230100Z 10016G27KT 060V120 9999 -RASN BKN023 OVC036 03/M01 Q0981
cycle: 1

Station Type Date Time Source
BIRK TAF 2018/01/23 03:15 UTC NOAA

TAF BIRK 230111Z 2303/2403 12012KT 9999 -RASN BKN015 OVC030 TX03/2303Z TNM01/2318Z
BECMG 2303/2306 9999 NSW SCT020 BKN030


Example: see airport list